Malcolm, Nebraska
Current Conditions -  °F | °C
As of 8:54 PM on Sunday 21 Dec 2014 (Local Time) from KLNK Reporting Station
Overcast Overcast  
Wind Chill: 35°   Ceiling: 500
Heat Index: 42°   Visibility: 7mi
Dew Point: 41°   Wind: 14mph
Humidity: 96%   Direction: 170°S
Pressure: 29.65"   Gusts: NA
Location:  40.91°N, 96.86°W
Report Text: KLNK 220254Z 17012KT 7SM OVC005 06/05 A2965 RMK AO2 RAB0155E28 SLP044 P0000 60000 T00560050 58013
Loading
Personal Weather Stations






























Interactive Weather Map New forecast layout! Learn more

10-Day Weather Forecast

Advertisements
Track Severe Weather on mobile